sensor_id;sensor_type;location;lat;lon;timestamp;pressure;altitude;pressure_sealevel;temperature;humidity
4273;BME280;63887;53.656;9.810;2023-02-13T00:00:13;103911.94;;;6.26;100.00
4273;BME280;63887;53.656;9.810;2023-02-13T00:02:39;103898.91;;;6.26;100.00
4273;BME280;63887;53.656;9.810;2023-02-13T00:05:06;103906.72;;;6.25;100.00
4273;BME280;63887;53.656;9.810;2023-02-13T00:07:32;103901.44;;;6.23;100.00
4273;BME280;63887;53.656;9.810;2023-02-13T00:10:00;103898.00;;;6.24;100.00
4273;BME280;63887;53.656;9.810;2023-02-13T00:12:26;103904.13;;;6.26;100.00
4273;BME280;63887;53.656;9.810;2023-02-13T00:14:53;103909.38;;;6.30;100.00
4273;BME280;63887;53.656;9.810;2023-02-13T00:17:19;103903.28;;;6.29;100.00
4273;BME280;63887;53.656;9.810;2023-02-13T00:19:45;103901.56;;;6.30;100.00
4273;BME280;63887;53.656;9.810;2023-02-13T00:22:12;103898.94;;;6.28;100.00
4273;BME280;63887;53.656;9.810;2023-02-13T00:24:40;103897.19;;;6.28;100.00
4273;BME280;63887;53.656;9.810;2023-02-13T00:27:08;103903.28;;;6.27;100.00
4273;BME280;63887;53.656;9.810;2023-02-13T00:29:34;103885.88;;;6.25;100.00
4273;BME280;63887;53.656;9.810;2023-02-13T00:32:01;103893.72;;;6.28;100.00
4273;BME280;63887;53.656;9.810;2023-02-13T00:34:27;103888.41;;;6.23;100.00
4273;BME280;63887;53.656;9.810;2023-02-13T00:36:53;103882.31;;;6.21;100.00
4273;BME280;63887;53.656;9.810;2023-02-13T00:39:20;103888.41;;;6.23;100.00
4273;BME280;63887;53.656;9.810;2023-02-13T00:41:47;103887.56;;;6.24;100.00
4273;BME280;63887;53.656;9.810;2023-02-13T00:44:14;103891.91;;;6.24;100.00
4273;BME280;63887;53.656;9.810;2023-02-13T00:46:41;103897.13;;;6.24;100.00
4273;BME280;63887;53.656;9.810;2023-02-13T00:49:07;103885.00;;;6.26;100.00
4273;BME280;63887;53.656;9.810;2023-02-13T00:51:33;103885.88;;;6.26;100.00
4273;BME280;63887;53.656;9.810;2023-02-13T00:54:00;103891.97;;;6.27;100.00
4273;BME280;63887;53.656;9.810;2023-02-13T00:56:26;103892.84;;;6.27;100.00
4273;BME280;63887;53.656;9.810;2023-02-13T00:58:52;103894.56;;;6.27;100.00
4273;BME280;63887;53.656;9.810;2023-02-13T01:01:20;103891.09;;;6.26;100.00
4273;BME280;63887;53.656;9.810;2023-02-13T01:03:46;103885.81;;;6.23;100.00
4273;BME280;63887;53.656;9.810;2023-02-13T01:06:13;103895.38;;;6.23;100.00
4273;BME280;63887;53.656;9.810;2023-02-13T01:08:39;103887.53;;;6.21;100.00
4273;BME280;63887;53.656;9.810;2023-02-13T01:11:07;103889.28;;;6.22;100.00
4273;BME280;63887;53.656;9.810;2023-02-13T01:13:34;103884.03;;;6.21;100.00
4273;BME280;63887;53.656;9.810;2023-02-13T01:16:01;103882.25;;;6.15;100.00
4273;BME280;63887;53.656;9.810;2023-02-13T01:18:28;103883.97;;;6.15;100.00
4273;BME280;63887;53.656;9.810;2023-02-13T01:20:56;103886.59;;;6.15;100.00
4273;BME280;63887;53.656;9.810;2023-02-13T01:23:22;103885.75;;;6.19;100.00
4273;BME280;63887;53.656;9.810;2023-02-13T01:25:50;103883.13;;;6.17;100.00
4273;BME280;63887;53.656;9.810;2023-02-13T01:28:17;103879.63;;;6.15;100.00
4273;BME280;63887;53.656;9.810;2023-02-13T01:30:43;103887.47;;;6.15;100.00
4273;BME280;63887;53.656;9.810;2023-02-13T01:33:10;103877.03;;;6.15;100.00
4273;BME280;63887;53.656;9.810;2023-02-13T01:35:38;103878.75;;;6.15;100.00
4273;BME280;63887;53.656;9.810;2023-02-13T01:38:08;103877.03;;;6.15;100.00
4273;BME280;63887;53.656;9.810;2023-02-13T01:40:34;103868.34;;;6.15;100.00
4273;BME280;63887;53.656;9.810;2023-02-13T01:43:00;103868.31;;;6.13;100.00
4273;BME280;63887;53.656;9.810;2023-02-13T01:45:27;103870.03;;;6.11;100.00
4273;BME280;63887;53.656;9.810;2023-02-13T01:47:55;103870.94;;;6.13;100.00
4273;BME280;63887;53.656;9.810;2023-02-13T01:50:23;103857.91;;;6.13;100.00
4273;BME280;63887;53.656;9.810;2023-02-13T01:52:53;103853.56;;;6.14;100.00
4273;BME280;63887;53.656;9.810;2023-02-13T01:55:22;103852.72;;;6.16;100.00
4273;BME280;63887;53.656;9.810;2023-02-13T01:57:50;103854.44;;;6.14;100.00
4273;BME280;63887;53.656;9.810;2023-02-13T02:00:18;103851.00;;;6.18;100.00
4273;BME280;63887;53.656;9.810;2023-02-13T02:02:46;103848.34;;;6.14;99.94
4273;BME280;63887;53.656;9.810;2023-02-13T02:05:17;103852.69;;;6.13;99.93
4273;BME280;63887;53.656;9.810;2023-02-13T02:07:44;103850.94;;;6.12;99.91
4273;BME280;63887;53.656;9.810;2023-02-13T02:10:15;103841.38;;;6.13;99.74
4273;BME280;63887;53.656;9.810;2023-02-13T02:12:42;103843.09;;;6.11;99.83
4273;BME280;63887;53.656;9.810;2023-02-13T02:15:11;103847.38;;;6.09;100.00
4273;BME280;63887;53.656;9.810;2023-02-13T02:17:37;103848.31;;;6.11;100.00
4273;BME280;63887;53.656;9.810;2023-02-13T02:20:08;103837.03;;;6.12;99.55
4273;BME280;63887;53.656;9.810;2023-02-13T02:22:44;103834.34;;;6.09;100.00
4273;BME280;63887;53.656;9.810;2023-02-13T02:25:33;103837.88;;;6.11;99.69
4273;BME280;63887;53.656;9.810;2023-02-13T02:28:09;103843.94;;;6.10;99.48
4273;BME280;63887;53.656;9.810;2023-02-13T02:33:40;103842.16;;;6.07;99.47
4273;BME280;63887;53.656;9.810;2023-02-13T02:36:12;103835.19;;;6.06;99.00
4273;BME280;63887;53.656;9.810;2023-02-13T02:38:46;103837.78;;;6.05;98.77
4273;BME280;63887;53.656;9.810;2023-02-13T02:41:22;103832.56;;;6.05;98.53
4273;BME280;63887;53.656;9.810;2023-02-13T02:44:07;103841.25;;;6.02;98.43
4273;BME280;63887;53.656;9.810;2023-02-13T02:46:37;103841.25;;;6.02;98.53
4273;BME280;63887;53.656;9.810;2023-02-13T02:49:28;103845.56;;;6.02;98.81
4273;BME280;63887;53.656;9.810;2023-02-13T02:52:17;103840.38;;;6.02;98.75
4273;BME280;63887;53.656;9.810;2023-02-13T02:54:45;103835.16;;;6.02;98.83
4273;BME280;63887;53.656;9.810;2023-02-13T02:57:32;103836.84;;;5.98;98.05
4273;BME280;63887;53.656;9.810;2023-02-13T03:00:13;103842.06;;;5.98;97.93
4273;BME280;63887;53.656;9.810;2023-02-13T03:02:58;103838.59;;;5.99;98.50
4273;BME280;63887;53.656;9.810;2023-02-13T03:05:43;103835.09;;;5.97;98.20
4273;BME280;63887;53.656;9.810;2023-02-13T03:08:28;103827.31;;;5.98;98.00
4273;BME280;63887;53.656;9.810;2023-02-13T03:11:09;103835.09;;;5.97;98.64
4273;BME280;63887;53.656;9.810;2023-02-13T03:13:53;103835.09;;;5.95;98.63
4273;BME280;63887;53.656;9.810;2023-02-13T03:16:21;103827.25;;;5.95;99.53
4273;BME280;63887;53.656;9.810;2023-02-13T03:19:12;103828.13;;;5.96;98.85
4273;BME280;63887;53.656;9.810;2023-02-13T03:22:02;103842.03;;;5.96;98.33
4273;BME280;63887;53.656;9.810;2023-02-13T03:24:49;103836.84;;;5.96;97.96
4273;BME280;63887;53.656;9.810;2023-02-13T03:27:21;103833.34;;;5.96;96.95
4273;BME280;63887;53.656;9.810;2023-02-13T03:30:10;103841.19;;;5.97;96.79
4273;BME280;63887;53.656;9.810;2023-02-13T03:32:41;103836.75;;;5.93;96.41
4273;BME280;63887;53.656;9.810;2023-02-13T03:35:18;103845.44;;;5.92;97.02
4273;BME280;63887;53.656;9.810;2023-02-13T03:38:07;103839.38;;;5.93;96.56
4273;BME280;63887;53.656;9.810;2023-02-13T03:40:39;103840.19;;;5.91;97.26
4273;BME280;63887;53.656;9.810;2023-02-13T03:43:28;103846.31;;;5.93;97.38
4273;BME280;63887;53.656;9.810;2023-02-13T03:45:57;103848.03;;;5.92;97.54
4273;BME280;63887;53.656;9.810;2023-02-13T03:48:27;103852.38;;;5.93;97.53
4273;BME280;63887;53.656;9.810;2023-02-13T03:51:13;103853.25;;;5.94;97.18
4273;BME280;63887;53.656;9.810;2023-02-13T03:53:42;103854.13;;;5.93;96.97
4273;BME280;63887;53.656;9.810;2023-02-13T03:56:10;103853.25;;;5.92;97.14
4273;BME280;63887;53.656;9.810;2023-02-13T03:58:56;103850.63;;;5.91;98.04
4273;BME280;63887;53.656;9.810;2023-02-13T04:01:40;103852.28;;;5.87;96.83
4273;BME280;63887;53.656;9.810;2023-02-13T04:04:10;103854.88;;;5.87;97.49
4273;BME280;63887;53.656;9.810;2023-02-13T04:06:41;103844.50;;;5.89;97.66
4273;BME280;63887;53.656;9.810;2023-02-13T04:09:13;103848.81;;;5.88;98.08
4273;BME280;63887;53.656;9.810;2023-02-13T04:11:40;103850.56;;;5.88;97.52
4273;BME280;63887;53.656;9.810;2023-02-13T04:14:12;103847.06;;;5.87;97.49
4273;BME280;63887;53.656;9.810;2023-02-13T04:16:41;103849.66;;;5.86;98.11
4273;BME280;63887;53.656;9.810;2023-02-13T04:19:08;103845.31;;;5.86;97.32
4273;BME280;63887;53.656;9.810;2023-02-13T04:21:36;103847.94;;;5.88;97.15
4273;BME280;63887;53.656;9.810;2023-02-13T04:24:04;103840.94;;;5.84;97.68
4273;BME280;63887;53.656;9.810;2023-02-13T04:26:33;103851.38;;;5.84;97.82
4273;BME280;63887;53.656;9.810;2023-02-13T04:29:00;103848.75;;;5.82;97.09
4273;BME280;63887;53.656;9.810;2023-02-13T04:31:26;103841.81;;;5.83;96.85
4273;BME280;63887;53.656;9.810;2023-02-13T04:33:53;103847.00;;;5.81;97.10
4273;BME280;63887;53.656;9.810;2023-02-13T04:36:19;103846.16;;;5.84;97.11
4273;BME280;63887;53.656;9.810;2023-02-13T04:38:45;103845.28;;;5.82;97.36
4273;BME280;63887;53.656;9.810;2023-02-13T04:41:12;103845.22;;;5.80;98.15
4273;BME280;63887;53.656;9.810;2023-02-13T04:43:39;103847.75;;;5.76;98.36
4273;BME280;63887;53.656;9.810;2023-02-13T04:46:06;103846.06;;;5.78;98.42
4273;BME280;63887;53.656;9.810;2023-02-13T04:48:32;103843.44;;;5.78;98.01
4273;BME280;63887;53.656;9.810;2023-02-13T04:50:58;103834.75;;;5.77;98.26
4273;BME280;63887;53.656;9.810;2023-02-13T04:53:25;103843.44;;;5.78;97.73
4273;BME280;63887;53.656;9.810;2023-02-13T04:55:51;103845.22;;;5.80;98.03
4273;BME280;63887;53.656;9.810;2023-02-13T04:58:18;103841.72;;;5.78;97.04
4273;BME280;63887;53.656;9.810;2023-02-13T05:00:45;103841.69;;;5.77;97.21
4273;BME280;63887;53.656;9.810;2023-02-13T05:03:12;103835.63;;;5.78;97.72
4273;BME280;63887;53.656;9.810;2023-02-13T05:05:38;103836.50;;;5.78;97.80
4273;BME280;63887;53.656;9.810;2023-02-13T05:08:05;103832.25;;;5.82;96.77
4273;BME280;63887;53.656;9.810;2023-02-13T05:10:32;103838.31;;;5.81;97.10
4273;BME280;63887;53.656;9.810;2023-02-13T05:12:58;103833.13;;;5.82;96.88
4273;BME280;63887;53.656;9.810;2023-02-13T05:15:25;103832.28;;;5.85;96.13
4273;BME280;63887;53.656;9.810;2023-02-13T05:17:53;103833.19;;;5.88;96.29
4273;BME280;63887;53.656;9.810;2023-02-13T05:20:19;103839.34;;;5.90;96.04
4273;BME280;63887;53.656;9.810;2023-02-13T05:22:45;103829.72;;;5.89;96.26
4273;BME280;63887;53.656;9.810;2023-02-13T05:25:30;103836.66;;;5.89;96.62
4273;BME280;63887;53.656;9.810;2023-02-13T05:27:56;103838.50;;;5.93;95.52
4273;BME280;63887;53.656;9.810;2023-02-13T05:30:23;103834.94;;;5.89;95.45
4273;BME280;63887;53.656;9.810;2023-02-13T05:32:49;103835.78;;;5.87;96.51
4273;BME280;63887;53.656;9.810;2023-02-13T05:35:17;103836.63;;;5.86;96.24
4273;BME280;63887;53.656;9.810;2023-02-13T05:37:44;103835.75;;;5.85;96.39
4273;BME280;63887;53.656;9.810;2023-02-13T05:40:11;103840.94;;;5.84;96.15
4273;BME280;63887;53.656;9.810;2023-02-13T05:42:37;103839.19;;;5.81;97.01
4273;BME280;63887;53.656;9.810;2023-02-13T05:45:04;103843.53;;;5.81;97.07
4273;BME280;63887;53.656;9.810;2023-02-13T05:47:31;103841.72;;;5.78;97.33
4273;BME280;63887;53.656;9.810;2023-02-13T05:49:57;103848.63;;;5.75;97.19
4273;BME280;63887;53.656;9.810;2023-02-13T05:52:25;103853.84;;;5.75;97.62
4273;BME280;63887;53.656;9.810;2023-02-13T05:54:51;103845.09;;;5.71;98.76
4273;BME280;63887;53.656;9.810;2023-02-13T05:57:18;103848.50;;;5.65;98.06
4273;BME280;63887;53.656;9.810;2023-02-13T05:59:44;103855.50;;;5.69;98.36
4273;BME280;63887;53.656;9.810;2023-02-13T06:02:10;103858.09;;;5.68;97.56
4273;BME280;63887;53.656;9.810;2023-02-13T06:04:37;103859.75;;;5.64;97.65
4273;BME280;63887;53.656;9.810;2023-02-13T06:07:03;103857.22;;;5.67;97.76
4273;BME280;63887;53.656;9.810;2023-02-13T06:09:31;103858.06;;;5.66;97.42
4273;BME280;63887;53.656;9.810;2023-02-13T06:11:57;103862.34;;;5.64;97.86
4273;BME280;63887;53.656;9.810;2023-02-13T06:14:24;103857.22;;;5.67;97.87
4273;BME280;63887;53.656;9.810;2023-02-13T06:16:50;103860.69;;;5.68;98.32
4273;BME280;63887;53.656;9.810;2023-02-13T06:19:16;103858.91;;;5.65;97.62
4273;BME280;63887;53.656;9.810;2023-02-13T06:21:42;103860.63;;;5.65;97.57
4273;BME280;63887;53.656;9.810;2023-02-13T06:24:09;103865.00;;;5.66;97.47
4273;BME280;63887;53.656;9.810;2023-02-13T06:26:36;103860.63;;;5.65;97.32
4273;BME280;63887;53.656;9.810;2023-02-13T06:29:03;103870.16;;;5.64;97.24
4273;BME280;63887;53.656;9.810;2023-02-13T06:31:29;103874.44;;;5.61;97.87
4273;BME280;63887;53.656;9.810;2023-02-13T06:33:56;103881.38;;;5.60;97.69
4273;BME280;63887;53.656;9.810;2023-02-13T06:36:22;103878.81;;;5.62;97.42
4273;BME280;63887;53.656;9.810;2023-02-13T06:38:48;103873.56;;;5.59;97.69
4273;BME280;63887;53.656;9.810;2023-02-13T06:41:14;103884.00;;;5.62;97.22
4273;BME280;63887;53.656;9.810;2023-02-13T06:43:42;103881.53;;;5.69;96.96
4273;BME280;63887;53.656;9.810;2023-02-13T06:46:08;103880.72;;;5.74;97.10
4273;BME280;63887;53.656;9.810;2023-02-13T06:48:35;103886.81;;;5.74;97.18
4273;BME280;63887;53.656;9.810;2023-02-13T06:51:01;103887.72;;;5.76;97.49
4273;BME280;63887;53.656;9.810;2023-02-13T06:53:28;103888.63;;;5.80;96.45
4273;BME280;63887;53.656;9.810;2023-02-13T06:55:54;103886.84;;;5.77;95.92
4273;BME280;63887;53.656;9.810;2023-02-13T06:58:21;103899.91;;;5.79;95.93
4273;BME280;63887;53.656;9.810;2023-02-13T07:00:49;103905.91;;;5.75;95.99
4273;BME280;63887;53.656;9.810;2023-02-13T07:03:16;103905.91;;;5.75;95.52
4273;BME280;63887;53.656;9.810;2023-02-13T07:05:43;103912.03;;;5.77;95.36
4273;BME280;63887;53.656;9.810;2023-02-13T07:08:10;103911.13;;;5.75;95.88
4273;BME280;63887;53.656;9.810;2023-02-13T07:10:37;103912.91;;;5.79;95.49
4273;BME280;63887;53.656;9.810;2023-02-13T07:13:03;103913.78;;;5.79;95.71
4273;BME280;63887;53.656;9.810;2023-02-13T07:15:30;103916.50;;;5.84;95.71
4273;BME280;63887;53.656;9.810;2023-02-13T07:17:58;103908.72;;;5.87;94.82
4273;BME280;63887;53.656;9.810;2023-02-13T07:20:25;103905.22;;;5.85;95.70
4273;BME280;63887;53.656;9.810;2023-02-13T07:22:51;103919.13;;;5.85;95.80
4273;BME280;63887;53.656;9.810;2023-02-13T07:25:18;103906.94;;;5.84;96.01
4273;BME280;63887;53.656;9.810;2023-02-13T07:27:44;103910.44;;;5.86;95.38
4273;BME280;63887;53.656;9.810;2023-02-13T07:30:10;103913.06;;;5.88;95.75
4273;BME280;63887;53.656;9.810;2023-02-13T07:32:38;103913.06;;;5.86;95.99
4273;BME280;63887;53.656;9.810;2023-02-13T07:35:06;103914.66;;;5.80;95.85
4273;BME280;63887;53.656;9.810;2023-02-13T07:37:32;103913.00;;;5.82;95.66
4273;BME280;63887;53.656;9.810;2023-02-13T07:39:59;103914.75;;;5.84;96.03
4273;BME280;63887;53.656;9.810;2023-02-13T07:42:25;103911.28;;;5.84;95.92
4273;BME280;63887;53.656;9.810;2023-02-13T07:44:51;103920.09;;;5.90;95.18
4273;BME280;63887;53.656;9.810;2023-02-13T07:47:18;103922.72;;;5.92;95.57
4273;BME280;63887;53.656;9.810;2023-02-13T07:49:44;103915.69;;;5.89;95.42
4273;BME280;63887;53.656;9.810;2023-02-13T07:52:12;103927.03;;;5.90;95.59
4273;BME280;63887;53.656;9.810;2023-02-13T07:54:39;103931.34;;;5.89;95.87
4273;BME280;63887;53.656;9.810;2023-02-13T07:57:11;103932.28;;;5.93;95.71
4273;BME280;63887;53.656;9.810;2023-02-13T07:59:37;103932.41;;;6.01;95.63
4273;BME280;63887;53.656;9.810;2023-02-13T08:02:04;103932.41;;;6.01;95.81
4273;BME280;63887;53.656;9.810;2023-02-13T08:04:30;103929.81;;;6.02;95.75
4273;BME280;63887;53.656;9.810;2023-02-13T08:06:56;103920.28;;;6.04;95.88
4273;BME280;63887;53.656;9.810;2023-02-13T08:09:24;103922.97;;;6.09;95.25
4273;BME280;63887;53.656;9.810;2023-02-13T08:12:08;103922.09;;;6.10;94.93
4273;BME280;63887;53.656;9.810;2023-02-13T08:14:35;103916.13;;;6.15;95.50
4273;BME280;63887;53.656;9.810;2023-02-13T08:17:02;103917.81;;;6.12;95.07
4273;BME280;63887;53.656;9.810;2023-02-13T08:19:28;103928.28;;;6.15;95.27
4273;BME280;63887;53.656;9.810;2023-02-13T08:21:54;103929.13;;;6.14;94.29
4273;BME280;63887;53.656;9.810;2023-02-13T08:24:22;103933.50;;;6.15;94.71
4273;BME280;63887;53.656;9.810;2023-02-13T08:26:49;103925.72;;;6.18;94.89
4273;BME280;63887;53.656;9.810;2023-02-13T08:29:16;103923.94;;;6.14;94.85
4273;BME280;63887;53.656;9.810;2023-02-13T08:31:42;103929.94;;;6.10;94.73
4273;BME280;63887;53.656;9.810;2023-02-13T08:34:09;103932.53;;;6.10;95.15
4273;BME280;63887;53.656;9.810;2023-02-13T08:36:35;103934.34;;;6.12;94.93
4273;BME280;63887;53.656;9.810;2023-02-13T08:39:01;103927.38;;;6.11;95.21
4273;BME280;63887;53.656;9.810;2023-02-13T08:41:28;103931.75;;;6.14;94.98
4273;BME280;63887;53.656;9.810;2023-02-13T08:43:55;103931.72;;;6.11;94.85
4273;BME280;63887;53.656;9.810;2023-02-13T08:46:22;103941.31;;;6.15;94.96
4273;BME280;63887;53.656;9.810;2023-02-13T08:48:48;103934.47;;;6.24;95.19
4273;BME280;63887;53.656;9.810;2023-02-13T08:51:15;103944.88;;;6.23;94.59
4273;BME280;63887;53.656;9.810;2023-02-13T08:53:41;103938.00;;;6.26;95.08
4273;BME280;63887;53.656;9.810;2023-02-13T08:56:08;103936.38;;;6.35;94.37
4273;BME280;63887;53.656;9.810;2023-02-13T08:58:34;103931.16;;;6.35;93.73
4273;BME280;63887;53.656;9.810;2023-02-13T09:01:04;103934.69;;;6.40;93.42
4273;BME280;63887;53.656;9.810;2023-02-13T09:03:31;103937.25;;;6.35;93.04
4273;BME280;63887;53.656;9.810;2023-02-13T09:05:57;103937.16;;;6.27;94.16
4273;BME280;63887;53.656;9.810;2023-02-13T09:08:24;103936.34;;;6.32;93.47
4273;BME280;63887;53.656;9.810;2023-02-13T09:10:54;103928.59;;;6.38;93.55
4273;BME280;63887;53.656;9.810;2023-02-13T09:13:20;103929.56;;;6.44;92.73
4273;BME280;63887;53.656;9.810;2023-02-13T09:15:46;103926.94;;;6.43;92.62
4273;BME280;63887;53.656;9.810;2023-02-13T09:18:14;103931.31;;;6.47;92.46
4273;BME280;63887;53.656;9.810;2023-02-13T09:20:40;103933.19;;;6.55;92.55
4273;BME280;63887;53.656;9.810;2023-02-13T09:23:07;103934.88;;;6.53;91.57
4273;BME280;63887;53.656;9.810;2023-02-13T09:25:33;103927.97;;;6.55;91.44
4273;BME280;63887;53.656;9.810;2023-02-13T09:27:59;103929.78;;;6.61;91.86
4273;BME280;63887;53.656;9.810;2023-02-13T09:30:26;103930.66;;;6.62;91.38
4273;BME280;63887;53.656;9.810;2023-02-13T09:32:52;103932.44;;;6.66;91.28
4273;BME280;63887;53.656;9.810;2023-02-13T09:35:21;103930.66;;;6.63;91.59
4273;BME280;63887;53.656;9.810;2023-02-13T09:37:47;103932.44;;;6.67;91.63
4273;BME280;63887;53.656;9.810;2023-02-13T09:40:17;103935.16;;;6.73;91.87
4273;BME280;63887;53.656;9.810;2023-02-13T09:42:46;103935.22;;;6.81;90.52
4273;BME280;63887;53.656;9.810;2023-02-13T09:45:13;103946.47;;;6.74;89.96
4273;BME280;63887;53.656;9.810;2023-02-13T09:47:42;103942.00;;;6.65;90.48
4273;BME280;63887;53.656;9.810;2023-02-13T09:50:10;103948.88;;;6.60;90.67
4273;BME280;63887;53.656;9.810;2023-02-13T09:52:39;103953.22;;;6.60;91.46
4273;BME280;63887;53.656;9.810;2023-02-13T09:55:15;103954.13;;;6.62;90.69
4273;BME280;63887;53.656;9.810;2023-02-13T09:57:43;103950.81;;;6.73;90.65
4273;BME280;63887;53.656;9.810;2023-02-13T10:00:13;103946.47;;;6.77;90.72
4273;BME280;63887;53.656;9.810;2023-02-13T10:02:43;103941.41;;;6.87;90.17
4273;BME280;63887;53.656;9.810;2023-02-13T10:05:18;103943.13;;;6.87;90.11
4273;BME280;63887;53.656;9.810;2023-02-13T10:07:47;103940.41;;;6.78;90.90
4273;BME280;63887;53.656;9.810;2023-02-13T10:10:18;103937.84;;;6.81;90.88
4273;BME280;63887;53.656;9.810;2023-02-13T10:12:54;103934.34;;;6.80;90.21
4273;BME280;63887;53.656;9.810;2023-02-13T10:15:23;103920.44;;;6.83;90.49
4273;BME280;63887;53.656;9.810;2023-02-13T10:17:55;103933.50;;;6.83;89.64
4273;BME280;63887;53.656;9.810;2023-02-13T10:20:25;103932.63;;;6.82;89.32
4273;BME280;63887;53.656;9.810;2023-02-13T10:22:55;103936.06;;;6.77;90.51
4273;BME280;63887;53.656;9.810;2023-02-13T10:25:26;103932.56;;;6.76;90.56
4273;BME280;63887;53.656;9.810;2023-02-13T10:27:53;103929.13;;;6.79;90.54
4273;BME280;63887;53.656;9.810;2023-02-13T10:30:21;103926.47;;;6.76;89.94
4273;BME280;63887;53.656;9.810;2023-02-13T10:32:51;103927.19;;;6.63;89.73
4273;BME280;63887;53.656;9.810;2023-02-13T10:35:35;103929.03;;;6.71;90.75
4273;BME280;63887;53.656;9.810;2023-02-13T10:38:10;103922.06;;;6.70;90.54
4273;BME280;63887;53.656;9.810;2023-02-13T10:40:38;103912.69;;;6.87;89.39
4273;BME280;63887;53.656;9.810;2023-02-13T10:43:06;103916.97;;;6.84;90.07
4273;BME280;63887;53.656;9.810;2023-02-13T10:45:43;103912.78;;;6.95;90.08
4273;BME280;63887;53.656;9.810;2023-02-13T10:48:18;103919.72;;;6.93;89.46
4273;BME280;63887;53.656;9.810;2023-02-13T10:50:47;103921.53;;;7.00;89.69
4273;BME280;63887;53.656;9.810;2023-02-13T10:53:21;103925.94;;;7.06;89.35
4273;BME280;63887;53.656;9.810;2023-02-13T10:55:54;103927.63;;;7.01;90.17
4273;BME280;63887;53.656;9.810;2023-02-13T10:58:26;103931.16;;;7.04;90.11
4273;BME280;63887;53.656;9.810;2023-02-13T11:00:57;103925.91;;;7.01;90.06
4273;BME280;63887;53.656;9.810;2023-02-13T11:03:27;103920.72;;;7.06;88.12
4273;BME280;63887;53.656;9.810;2023-02-13T11:05:54;103914.66;;;7.10;88.49
4273;BME280;63887;53.656;9.810;2023-02-13T11:08:23;103912.84;;;7.00;88.30
4273;BME280;63887;53.656;9.810;2023-02-13T11:10:50;103908.66;;;7.17;88.22
4273;BME280;63887;53.656;9.810;2023-02-13T11:13:18;103918.28;;;7.24;87.73
4273;BME280;63887;53.656;9.810;2023-02-13T11:18:29;103913.03;;;7.21;87.41
4273;BME280;63887;53.656;9.810;2023-02-13T11:20:59;103913.00;;;7.16;87.84
4273;BME280;63887;53.656;9.810;2023-02-13T11:23:37;103910.41;;;7.18;88.31
4273;BME280;63887;53.656;9.810;2023-02-13T11:26:05;103911.41;;;7.29;88.05
4273;BME280;63887;53.656;9.810;2023-02-13T11:28:35;103910.59;;;7.41;87.30
4273;BME280;63887;53.656;9.810;2023-02-13T11:31:07;103900.13;;;7.38;87.60
4273;BME280;63887;53.656;9.810;2023-02-13T11:33:34;103896.69;;;7.42;87.13
4273;BME280;63887;53.656;9.810;2023-02-13T11:36:04;103898.38;;;7.32;87.31
4273;BME280;63887;53.656;9.810;2023-02-13T11:38:31;103887.94;;;7.37;87.61
4273;BME280;63887;53.656;9.810;2023-02-13T11:41:04;103889.59;;;7.26;87.97
4273;BME280;63887;53.656;9.810;2023-02-13T11:43:32;103890.34;;;7.14;88.42
4273;BME280;63887;53.656;9.810;2023-02-13T11:46:01;103887.78;;;7.15;87.70
4273;BME280;63887;53.656;9.810;2023-02-13T11:48:28;103896.53;;;7.25;87.96
4273;BME280;63887;53.656;9.810;2023-02-13T11:50:55;103905.34;;;7.35;87.54
4273;BME280;63887;53.656;9.810;2023-02-13T11:53:22;103903.59;;;7.35;87.60
4273;BME280;63887;53.656;9.810;2023-02-13T11:55:59;103907.16;;;7.43;87.31
4273;BME280;63887;53.656;9.810;2023-02-13T11:58:27;103902.88;;;7.50;87.31
4273;BME280;63887;53.656;9.810;2023-02-13T12:01:06;103908.09;;;7.53;86.91
4273;BME280;63887;53.656;9.810;2023-02-13T12:03:32;103905.47;;;7.47;86.13
4273;BME280;63887;53.656;9.810;2023-02-13T12:06:00;103897.53;;;7.38;87.42
4273;BME280;63887;53.656;9.810;2023-02-13T12:08:27;103887.16;;;7.44;85.71
4273;BME280;63887;53.656;9.810;2023-02-13T12:10:54;103887.22;;;7.56;83.90
4273;BME280;63887;53.656;9.810;2023-02-13T12:13:23;103881.13;;;7.54;84.48
4273;BME280;63887;53.656;9.810;2023-02-13T12:15:56;103873.31;;;7.59;83.27
4273;BME280;63887;53.656;9.810;2023-02-13T12:18:25;103875.91;;;7.56;82.20
4273;BME280;63887;53.656;9.810;2023-02-13T12:20:55;103879.38;;;7.55;81.91
4273;BME280;63887;53.656;9.810;2023-02-13T12:23:27;103881.19;;;7.60;80.91
4273;BME280;63887;53.656;9.810;2023-02-13T12:25:58;103881.13;;;7.56;79.99
4273;BME280;63887;53.656;9.810;2023-02-13T12:28:32;103878.53;;;7.56;80.74
4273;BME280;63887;53.656;9.810;2023-02-13T12:31:21;103880.34;;;7.64;79.58
4273;BME280;63887;53.656;9.810;2023-02-13T12:34:06;103878.69;;;7.77;79.46
4273;BME280;63887;53.656;9.810;2023-02-13T12:36:41;103876.16;;;7.91;76.27
4273;BME280;63887;53.656;9.810;2023-02-13T12:39:24;103877.84;;;7.84;77.97
4273;BME280;63887;53.656;9.810;2023-02-13T12:41:56;103874.34;;;7.81;78.93
4273;BME280;63887;53.656;9.810;2023-02-13T12:44:32;103885.59;;;7.72;78.79
4273;BME280;63887;53.656;9.810;2023-02-13T12:47:12;103880.44;;;7.75;78.88
4273;BME280;63887;53.656;9.810;2023-02-13T12:49:54;103882.09;;;7.68;78.89
4273;BME280;63887;53.656;9.810;2023-02-13T12:52:28;103878.59;;;7.65;79.74
4273;BME280;63887;53.656;9.810;2023-02-13T12:55:01;103868.06;;;7.57;79.90
4273;BME280;63887;53.656;9.810;2023-02-13T12:57:39;103873.28;;;7.54;79.19
4273;BME280;63887;53.656;9.810;2023-02-13T13:00:14;103868.06;;;7.53;79.75
4273;BME280;63887;53.656;9.810;2023-02-13T13:05:33;103865.44;;;7.53;79.75
4273;BME280;63887;53.656;9.810;2023-02-13T13:08:08;103867.16;;;7.49;80.44
4273;BME280;63887;53.656;9.810;2023-02-13T13:10:49;103865.41;;;7.46;79.68
4273;BME280;63887;53.656;9.810;2023-02-13T13:13:22;103857.59;;;7.50;80.15
4273;BME280;63887;53.656;9.810;2023-02-13T13:15:53;103861.09;;;7.55;80.22
4273;BME280;63887;53.656;9.810;2023-02-13T13:18:27;103867.19;;;7.52;80.33
4273;BME280;63887;53.656;9.810;2023-02-13T13:20:58;103863.69;;;7.50;79.99
4273;BME280;63887;53.656;9.810;2023-02-13T13:23:29;103862.81;;;7.53;80.92
4273;BME280;63887;53.656;9.810;2023-02-13T13:25:58;103860.31;;;7.63;78.75
4273;BME280;63887;53.656;9.810;2023-02-13T13:28:28;103862.94;;;7.65;79.69
4273;BME280;63887;53.656;9.810;2023-02-13T13:30:57;103868.16;;;7.66;79.85